Terminal Aerodrome Forecast
Issued by NWS

Home | Current Version | Previous Version | Graphics & Text | Print | Product List | Glossary On
Versions: 1 2 3 4 5 6 7 8 9 10 11 12 13 14 15 16 17
000
FTUS43 KICT 162320
TAFHUT
TAF
KHUT 162320Z 1700/1724 16013KT P6SM SCT035
     FM170400 17013G21KT P6SM BKN015
     FM170700 17014G23KT 4SM -DZ OVC003
     FM171100 18015KT P6SM OVC007
     FM171600 20013G24KT P6SM SCT070=

USA.gov is the U.S. government's official web portal to all federal, state and local government web resources and services.